Terminal Aerodrome Forecast
Issued by NWS Sterling, VA

Current Version | Previous Version | Text Only | Print | Product List | Glossary Off
Versions: 1 2 3 4 5 6 7 8 9 10 11 12 13 14 15 16 17 18 19

000
FTUS41 KLWX 261700
TAFMRB
TAF
KMRB 261735Z 2618/2718 36006KT 1SM -SN BR BKN007 OVC013
     FM262000 03008KT 2SM -SN BR OVC008
     FM270500 35007KT 5SM -SN BR OVC020
     FM271400 32010KT P6SM OVC030=

USA.gov is the U.S. government's official web portal to all federal, state and local government web resources and services.